createdAt,value
2023-03-02T00:01:41.538Z,-2.70
2023-03-02T00:04:11.730Z,-2.70
2023-03-02T00:06:39.033Z,-2.70
2023-03-02T00:09:06.338Z,-1.70
2023-03-02T00:11:35.069Z,-2.80
2023-03-02T00:14:01.983Z,-2.70
2023-03-02T00:16:29.060Z,-2.80
2023-03-02T00:18:56.039Z,-1.90
2023-03-02T00:21:24.644Z,-2.80
2023-03-02T00:23:52.360Z,-2.80
2023-03-02T00:26:19.365Z,-2.90
2023-03-02T00:28:46.880Z,-2.00
2023-03-02T00:31:13.927Z,-2.90
2023-03-02T00:33:40.849Z,-2.90
2023-03-02T00:36:14.913Z,-2.90
2023-03-02T00:38:41.920Z,-2.90
2023-03-02T00:41:08.868Z,-2.90
2023-03-02T00:43:35.796Z,-2.90
2023-03-02T00:46:08.756Z,-2.80
2023-03-02T00:48:35.722Z,-2.90
2023-03-02T00:51:02.670Z,-2.90
2023-03-02T00:53:29.730Z,-2.90
2023-03-02T00:55:56.708Z,-1.70
2023-03-02T00:58:26.179Z,-2.90
2023-03-02T01:00:54.020Z,-2.90
2023-03-02T01:03:21.268Z,-3.00
2023-03-02T01:05:48.412Z,-2.00
2023-03-02T01:08:15.662Z,-3.00
2023-03-02T01:10:42.601Z,-3.00
2023-03-02T01:13:09.566Z,-3.10
2023-03-02T01:15:36.637Z,-2.70
2023-03-02T01:18:03.611Z,-3.10
2023-03-02T01:20:30.589Z,-2.10
2023-03-02T01:22:57.484Z,-3.10
2023-03-02T01:25:24.442Z,-3.20
2023-03-02T01:27:51.330Z,-3.20
2023-03-02T01:30:18.524Z,-3.10
2023-03-02T01:32:45.567Z,-3.10
2023-03-02T01:35:13.470Z,-2.20
2023-03-02T01:37:40.402Z,-3.20
2023-03-02T01:40:07.702Z,-3.20
2023-03-02T01:42:38.817Z,-3.20
2023-03-02T01:45:06.686Z,-3.30
2023-03-02T01:47:38.949Z,-3.30
2023-03-02T01:50:19.643Z,-3.30
2023-03-02T01:52:47.026Z,-3.30
2023-03-02T01:55:16.793Z,-3.30
2023-03-02T01:57:46.694Z,-3.30
2023-03-02T02:00:16.200Z,-3.30
2023-03-02T02:02:43.246Z,-3.30
2023-03-02T02:05:11.333Z,-3.40
2023-03-02T02:07:38.793Z,-3.30
2023-03-02T02:10:06.153Z,-2.80
2023-03-02T02:12:33.863Z,-3.40
2023-03-02T02:15:01.581Z,-3.40
2023-03-02T02:17:29.346Z,-3.40
2023-03-02T02:20:09.914Z,-2.50
2023-03-02T02:23:00.686Z,-3.50
2023-03-02T02:25:46.447Z,-3.50
2023-03-02T02:28:17.185Z,-3.50
2023-03-02T02:30:46.139Z,-3.50
2023-03-02T02:33:18.773Z,-3.50
2023-03-02T02:35:46.957Z,-3.50
2023-03-02T02:38:16.055Z,-3.60
2023-03-02T02:40:43.162Z,-3.30
2023-03-02T02:43:14.210Z,-3.60
2023-03-02T02:45:41.703Z,-3.60
2023-03-02T02:48:15.335Z,-3.50
2023-03-02T02:50:42.836Z,-3.60
2023-03-02T02:53:18.563Z,-2.80
2023-03-02T02:55:47.351Z,-3.70
2023-03-02T02:58:33.762Z,-3.70
2023-03-02T03:01:01.509Z,-3.60
2023-03-02T03:03:39.310Z,-3.60
2023-03-02T03:06:13.901Z,-3.60
2023-03-02T03:08:43.891Z,-2.40
2023-03-02T03:11:19.418Z,-3.70
2023-03-02T03:13:47.046Z,-3.70
2023-03-02T03:16:16.131Z,-3.70
2023-03-02T03:18:45.411Z,-3.70
2023-03-02T03:21:12.367Z,-3.70
2023-03-02T03:23:39.311Z,-3.50
2023-03-02T03:26:07.654Z,-3.70
2023-03-02T03:28:35.847Z,-2.70
2023-03-02T03:31:04.560Z,-3.70
2023-03-02T03:33:31.594Z,-3.70
2023-03-02T03:35:58.679Z,-3.70
2023-03-02T03:38:25.828Z,-2.40
2023-03-02T03:40:53.024Z,-3.80
2023-03-02T03:43:20.030Z,-3.70
2023-03-02T03:45:52.136Z,-3.70
2023-03-02T03:48:19.752Z,-3.80
2023-03-02T03:50:48.255Z,-3.80
2023-03-02T03:53:15.268Z,-3.90
2023-03-02T03:55:42.168Z,-3.80
2023-03-02T03:58:09.148Z,-3.80
2023-03-02T04:00:36.299Z,-3.80
2023-03-02T04:03:08.454Z,-3.90
2023-03-02T04:05:35.439Z,-2.10
2023-03-02T04:08:03.652Z,-3.90
2023-03-02T04:10:31.829Z,-3.90
2023-03-02T04:12:59.058Z,-3.90
2023-03-02T04:15:26.540Z,-3.30
2023-03-02T04:17:53.854Z,-3.90
2023-03-02T04:20:22.929Z,-2.70
2023-03-02T04:22:53.599Z,-4.00
2023-03-02T04:25:25.707Z,-4.00
2023-03-02T04:27:56.912Z,-3.90
2023-03-02T04:30:27.982Z,-3.90
2023-03-02T04:32:57.566Z,-4.00
2023-03-02T04:35:26.758Z,-2.70
2023-03-02T04:37:54.248Z,-4.00
2023-03-02T04:40:21.390Z,-4.00
2023-03-02T04:42:48.344Z,-4.00
2023-03-02T04:45:15.431Z,-2.50
2023-03-02T04:47:42.520Z,-4.00
2023-03-02T04:50:10.714Z,-2.50
2023-03-02T04:52:37.708Z,-4.10
2023-03-02T04:55:05.073Z,-4.10
2023-03-02T04:57:31.979Z,-4.00
2023-03-02T04:59:58.933Z,-4.10
2023-03-02T05:02:25.919Z,-4.00
2023-03-02T05:04:53.084Z,-4.10
2023-03-02T05:07:20.025Z,-4.10
2023-03-02T05:09:46.952Z,-2.30
2023-03-02T05:12:13.864Z,-4.10
2023-03-02T05:14:40.762Z,-4.10
2023-03-02T05:17:07.720Z,-4.10
2023-03-02T05:19:34.689Z,-3.50
2023-03-02T05:22:01.768Z,-4.10
2023-03-02T05:24:28.786Z,-4.20
2023-03-02T05:26:55.684Z,-4.10
2023-03-02T05:29:22.636Z,-4.10
2023-03-02T05:31:50.230Z,-4.10
2023-03-02T05:34:17.716Z,-4.10
2023-03-02T05:36:45.426Z,-4.20
2023-03-02T05:39:12.829Z,-3.10
2023-03-02T05:41:40.471Z,-4.10
2023-03-02T05:44:09.713Z,-2.40
2023-03-02T05:46:36.926Z,-4.20
2023-03-02T05:49:03.978Z,-4.20
2023-03-02T05:51:30.895Z,-4.00
2023-03-02T05:53:57.836Z,-3.70
2023-03-02T05:56:24.776Z,-4.10
2023-03-02T05:58:51.655Z,-4.10
2023-03-02T06:01:18.747Z,-4.20
2023-03-02T06:03:45.654Z,-3.50
2023-03-02T06:06:14.336Z,-4.10
2023-03-02T06:08:42.638Z,-4.10
2023-03-02T06:11:09.995Z,-4.00
2023-03-02T06:13:37.031Z,-2.90
2023-03-02T06:16:04.364Z,-4.00
2023-03-02T06:18:31.348Z,-4.00
2023-03-02T06:20:58.363Z,-3.90
2023-03-02T06:23:25.335Z,-3.00
2023-03-02T06:25:52.394Z,-3.90
2023-03-02T06:28:20.126Z,-3.90
2023-03-02T06:30:48.767Z,-3.90
2023-03-02T06:33:16.938Z,-3.20
2023-03-02T06:35:44.007Z,-3.80
2023-03-02T06:38:11.113Z,-3.80
2023-03-02T06:40:38.149Z,-3.70
2023-03-02T06:43:05.060Z,-2.10
2023-03-02T06:45:34.116Z,-3.60
2023-03-02T06:48:01.929Z,-2.70
2023-03-02T06:50:28.972Z,-3.40
2023-03-02T06:52:56.272Z,-3.40
2023-03-02T06:55:23.554Z,-3.40
2023-03-02T06:57:50.596Z,-3.30
2023-03-02T07:00:18.380Z,-2.80
2023-03-02T07:02:45.456Z,-3.20
2023-03-02T07:05:13.143Z,-3.10
2023-03-02T07:07:40.167Z,-3.00
2023-03-02T07:10:07.810Z,-2.30
2023-03-02T07:12:35.178Z,-2.90
2023-03-02T07:15:02.235Z,-2.90
2023-03-02T07:17:29.129Z,-2.70
2023-03-02T07:19:56.245Z,-2.80
2023-03-02T07:22:23.169Z,-2.70
2023-03-02T07:24:50.101Z,-2.60
2023-03-02T07:27:17.039Z,-2.60
2023-03-02T07:29:44.002Z,-2.50
2023-03-02T07:32:12.610Z,-2.40
2023-03-02T07:34:39.830Z,-2.40
2023-03-02T07:37:06.854Z,-2.30
2023-03-02T07:39:33.852Z,-2.30
2023-03-02T07:42:01.309Z,-2.20
2023-03-02T07:44:30.136Z,-1.00
2023-03-02T07:46:57.146Z,-2.10
2023-03-02T07:49:24.166Z,-2.00
2023-03-02T07:51:51.066Z,-1.90
2023-03-02T07:54:18.089Z,-1.00
2023-03-02T07:56:45.097Z,-1.10
2023-03-02T07:59:12.436Z,-1.70
2023-03-02T08:01:39.480Z,-1.40
2023-03-02T08:04:06.459Z,-1.50
2023-03-02T08:06:33.449Z,-1.50
2023-03-02T08:09:01.783Z,-1.40
2023-03-02T08:11:28.719Z,-1.40
2023-03-02T08:13:55.640Z,-1.30
2023-03-02T08:16:23.119Z,-1.20
2023-03-02T08:18:50.064Z,-1.10
2023-03-02T08:21:18.301Z,-1.00
2023-03-02T08:23:45.458Z,-0.90
2023-03-02T08:26:14.814Z,-0.90
2023-03-02T08:28:43.762Z,-0.70
2023-03-02T08:31:10.705Z,-0.60
2023-03-02T08:33:37.802Z,-0.60
2023-03-02T08:36:06.318Z,-0.50
2023-03-02T08:38:34.059Z,-0.40
2023-03-02T08:41:07.867Z,-0.20
2023-03-02T08:43:35.266Z,-0.10
2023-03-02T08:46:02.527Z,0.00
2023-03-02T08:48:29.811Z,0.00
2023-03-02T08:50:59.892Z,0.10
2023-03-02T08:53:27.624Z,0.30
2023-03-02T08:55:54.539Z,0.30
2023-03-02T08:58:21.696Z,0.40
2023-03-02T09:00:48.849Z,0.50
2023-03-02T09:03:15.886Z,0.60
2023-03-02T09:05:42.956Z,0.80
2023-03-02T09:08:10.034Z,0.90
2023-03-02T09:10:36.978Z,1.10
2023-03-02T09:13:04.011Z,1.20
2023-03-02T09:15:31.000Z,1.20
2023-03-02T09:17:57.956Z,1.30
2023-03-02T09:20:24.856Z,1.50
2023-03-02T09:22:51.849Z,1.60
2023-03-02T09:25:19.166Z,1.70
2023-03-02T09:27:46.862Z,1.70
2023-03-02T09:30:14.567Z,1.80
2023-03-02T09:32:41.859Z,1.90
2023-03-02T09:35:09.295Z,2.10
2023-03-02T09:37:38.983Z,2.20
2023-03-02T09:40:12.665Z,2.20
2023-03-02T09:42:44.198Z,2.20
2023-03-02T09:45:37.348Z,2.30
2023-03-02T09:48:20.991Z,2.40
2023-03-02T09:50:55.303Z,2.50
2023-03-02T09:53:34.321Z,2.60
2023-03-02T09:56:02.504Z,2.90
2023-03-02T09:58:36.082Z,2.90
2023-03-02T10:01:06.425Z,3.00
2023-03-02T10:03:40.464Z,3.00
2023-03-02T10:06:08.650Z,3.10
2023-03-02T10:08:37.646Z,3.30
2023-03-02T10:11:10.814Z,3.30
2023-03-02T10:13:47.557Z,3.20
2023-03-02T10:16:17.663Z,3.20
2023-03-02T10:19:07.997Z,3.30
2023-03-02T10:21:55.224Z,3.50
2023-03-02T10:24:40.953Z,3.50
2023-03-02T10:27:34.357Z,3.50
2023-03-02T10:30:03.179Z,3.60
2023-03-02T10:32:32.216Z,3.90
2023-03-02T10:35:00.852Z,4.00
2023-03-02T10:37:31.117Z,4.00
2023-03-02T10:39:58.089Z,4.00
2023-03-02T10:42:25.006Z,3.90
2023-03-02T10:44:53.869Z,3.90
2023-03-02T10:47:22.304Z,3.90
2023-03-02T10:49:49.383Z,4.00
2023-03-02T10:52:17.304Z,4.10
2023-03-02T10:54:44.239Z,4.10
2023-03-02T10:57:30.732Z,4.00
2023-03-02T10:59:59.994Z,4.00
2023-03-02T11:02:28.407Z,4.10
2023-03-02T11:04:57.781Z,4.20
2023-03-02T11:07:26.560Z,4.50
2023-03-02T11:10:01.921Z,4.50
2023-03-02T11:12:30.354Z,4.50
2023-03-02T11:15:16.148Z,4.50
2023-03-02T11:17:44.935Z,4.70
2023-03-02T11:20:16.647Z,4.70
2023-03-02T11:22:54.254Z,4.60
2023-03-02T11:25:30.441Z,4.70
2023-03-02T11:28:03.960Z,4.80
2023-03-02T11:30:33.007Z,4.80
2023-03-02T11:33:14.986Z,4.70
2023-03-02T11:35:48.001Z,4.70
2023-03-02T11:38:14.906Z,4.90
2023-03-02T11:40:47.340Z,5.10
2023-03-02T11:43:14.531Z,5.00
2023-03-02T11:45:43.753Z,5.10
2023-03-02T11:48:29.545Z,5.00
2023-03-02T11:50:58.945Z,5.10
2023-03-02T11:53:30.155Z,5.20
2023-03-02T11:55:57.202Z,5.20
2023-03-02T11:58:25.518Z,5.20
2023-03-02T12:00:53.543Z,5.20
2023-03-02T12:03:22.053Z,5.40
2023-03-02T12:05:51.933Z,5.40
2023-03-02T12:08:18.844Z,5.40
2023-03-02T12:10:57.833Z,5.40
2023-03-02T12:13:27.522Z,5.40
2023-03-02T12:15:56.502Z,5.40
2023-03-02T12:18:23.576Z,5.50
2023-03-02T12:20:59.679Z,5.40
2023-03-02T12:23:26.650Z,5.50
2023-03-02T12:26:02.704Z,5.50
2023-03-02T12:28:39.630Z,5.60
2023-03-02T12:31:11.366Z,5.60
2023-03-02T12:33:41.380Z,5.60
2023-03-02T12:36:29.592Z,5.50
2023-03-02T12:39:02.451Z,5.50
2023-03-02T12:41:35.745Z,5.60
2023-03-02T12:44:28.030Z,5.70
2023-03-02T12:46:56.449Z,5.70
2023-03-02T12:49:42.269Z,5.70
2023-03-02T12:52:27.515Z,5.70
2023-03-02T12:55:01.804Z,5.80
2023-03-02T12:57:28.797Z,5.90
2023-03-02T12:59:58.290Z,6.00
2023-03-02T13:02:30.357Z,6.10
2023-03-02T13:04:59.128Z,6.10
2023-03-02T13:07:28.354Z,6.20
2023-03-02T13:09:57.351Z,6.10
2023-03-02T13:12:25.846Z,6.00
2023-03-02T13:14:54.439Z,6.00
2023-03-02T13:17:26.021Z,6.00
2023-03-02T13:19:53.294Z,6.00
2023-03-02T13:22:22.578Z,6.10
2023-03-02T13:25:03.811Z,6.20
2023-03-02T13:27:31.451Z,6.20
2023-03-02T13:30:08.343Z,6.30
2023-03-02T13:32:36.326Z,6.30
2023-03-02T13:35:04.071Z,6.30
2023-03-02T13:37:31.032Z,6.10
2023-03-02T13:40:00.795Z,6.20
2023-03-02T13:42:40.822Z,6.10
2023-03-02T13:45:19.750Z,6.20
2023-03-02T13:47:46.768Z,6.30
2023-03-02T13:50:21.084Z,6.40
2023-03-02T13:52:48.725Z,6.40
2023-03-02T13:55:20.176Z,6.50
2023-03-02T13:57:47.987Z,6.40
2023-03-02T14:00:20.427Z,6.40
2023-03-02T14:02:48.795Z,6.50
2023-03-02T14:05:20.103Z,6.50
2023-03-02T14:07:47.666Z,6.50
2023-03-02T14:10:16.234Z,6.40
2023-03-02T14:12:46.612Z,6.40
2023-03-02T14:15:15.048Z,6.50
2023-03-02T14:17:42.584Z,6.50
2023-03-02T14:20:18.348Z,6.50
2023-03-02T14:22:46.115Z,6.40
2023-03-02T14:25:13.494Z,6.50
2023-03-02T14:27:40.868Z,6.40
2023-03-02T14:30:12.812Z,6.20
2023-03-02T14:32:39.732Z,6.20
2023-03-02T14:35:09.356Z,6.20
2023-03-02T14:37:36.366Z,6.20
2023-03-02T14:40:03.716Z,6.10
2023-03-02T14:42:30.634Z,6.20
2023-03-02T14:44:59.215Z,6.20
2023-03-02T14:47:26.844Z,6.10
2023-03-02T14:49:53.820Z,6.10
2023-03-02T14:52:30.757Z,6.10
2023-03-02T14:55:02.861Z,6.00
2023-03-02T14:57:30.430Z,5.90
2023-03-02T15:00:00.085Z,5.70
2023-03-02T15:02:27.442Z,5.60
2023-03-02T15:04:57.142Z,5.50
2023-03-02T15:07:25.668Z,5.40
2023-03-02T15:09:52.772Z,5.30
2023-03-02T15:12:19.839Z,5.30
2023-03-02T15:14:46.778Z,5.30
2023-03-02T15:17:13.794Z,5.30
2023-03-02T15:19:40.734Z,5.30
2023-03-02T15:22:07.874Z,5.40
2023-03-02T15:24:34.810Z,5.40
2023-03-02T15:27:01.782Z,5.30
2023-03-02T15:29:28.672Z,5.20
2023-03-02T15:31:55.740Z,5.00
2023-03-02T15:34:22.720Z,4.90
2023-03-02T15:36:49.742Z,4.90
2023-03-02T15:39:17.143Z,4.90
2023-03-02T15:41:44.046Z,4.80
2023-03-02T15:44:21.880Z,4.70
2023-03-02T15:46:49.739Z,4.70
2023-03-02T15:49:17.244Z,4.70
2023-03-02T15:51:44.122Z,4.60
2023-03-02T15:54:11.795Z,4.50
2023-03-02T15:56:44.332Z,4.40
2023-03-02T15:59:11.964Z,4.40
2023-03-02T16:01:38.890Z,4.30
2023-03-02T16:04:05.870Z,4.20
2023-03-02T16:06:32.872Z,4.10
2023-03-02T16:08:59.805Z,4.00
2023-03-02T16:11:26.756Z,3.90
2023-03-02T16:13:53.835Z,3.90
2023-03-02T16:16:21.372Z,3.80
2023-03-02T16:18:52.215Z,3.80
2023-03-02T16:21:19.337Z,3.70
2023-03-02T16:23:47.098Z,3.70
2023-03-02T16:26:15.981Z,3.50
2023-03-02T16:28:42.953Z,3.50
2023-03-02T16:31:16.373Z,3.90
2023-03-02T16:33:43.998Z,4.10
2023-03-02T16:36:11.442Z,4.20
2023-03-02T16:38:38.451Z,4.10
2023-03-02T16:41:11.460Z,4.10
2023-03-02T16:43:43.664Z,4.10
2023-03-02T16:46:10.609Z,4.20
2023-03-02T16:48:37.536Z,4.30
2023-03-02T16:51:05.035Z,4.30
2023-03-02T16:53:32.084Z,4.20
2023-03-02T16:55:59.002Z,4.20
2023-03-02T16:58:25.948Z,4.20
2023-03-02T17:00:52.999Z,4.10
2023-03-02T17:03:20.060Z,4.10
2023-03-02T17:05:47.240Z,4.00
2023-03-02T17:08:15.004Z,4.00
2023-03-02T17:10:42.242Z,3.80
2023-03-02T17:13:09.613Z,3.80
2023-03-02T17:15:36.569Z,3.80
2023-03-02T17:18:03.623Z,3.80
2023-03-02T17:20:30.663Z,3.80
2023-03-02T17:22:57.568Z,3.70
2023-03-02T17:25:24.548Z,3.60
2023-03-02T17:27:52.115Z,3.50
2023-03-02T17:30:19.488Z,3.50
2023-03-02T17:32:46.513Z,3.50
2023-03-02T17:35:14.030Z,3.50
2023-03-02T17:37:41.055Z,3.50
2023-03-02T17:40:08.585Z,3.50
2023-03-02T17:42:35.498Z,3.30
2023-03-02T17:45:02.463Z,3.30
2023-03-02T17:47:29.517Z,3.30
2023-03-02T17:49:58.378Z,3.20
2023-03-02T17:52:25.321Z,3.10
2023-03-02T17:54:54.091Z,3.10
2023-03-02T17:57:22.756Z,3.10
2023-03-02T17:59:53.173Z,3.10
2023-03-02T18:02:20.151Z,3.00
2023-03-02T18:04:47.038Z,3.00
2023-03-02T18:07:14.067Z,2.90
2023-03-02T18:09:41.157Z,2.80
2023-03-02T18:12:08.264Z,2.70
2023-03-02T18:14:35.971Z,2.60
2023-03-02T18:17:05.046Z,2.50
2023-03-02T18:19:32.012Z,2.40
2023-03-02T18:21:58.936Z,2.40
2023-03-02T18:24:25.979Z,2.50
2023-03-02T18:26:52.954Z,2.40
2023-03-02T18:29:20.011Z,2.40
2023-03-02T18:31:46.954Z,2.30
2023-03-02T18:34:14.575Z,2.20
2023-03-02T18:36:41.445Z,2.10
2023-03-02T18:39:08.918Z,2.00
2023-03-02T18:41:35.825Z,1.90
2023-03-02T18:44:03.679Z,1.80
2023-03-02T18:46:31.521Z,1.70
2023-03-02T18:49:00.585Z,1.70
2023-03-02T18:51:27.877Z,1.60
2023-03-02T18:53:55.001Z,1.50
2023-03-02T18:56:22.397Z,1.50
2023-03-02T18:58:49.709Z,1.40
2023-03-02T19:01:16.911Z,1.40
2023-03-02T19:03:46.016Z,1.30
2023-03-02T19:06:13.302Z,1.30
2023-03-02T19:08:40.268Z,1.40
2023-03-02T19:11:07.408Z,1.40
2023-03-02T19:13:34.505Z,1.40
2023-03-02T19:16:02.169Z,1.40
2023-03-02T19:18:29.540Z,1.30
2023-03-02T19:20:57.762Z,1.20
2023-03-02T19:23:25.185Z,1.20
2023-03-02T19:25:52.485Z,1.20
2023-03-02T19:28:21.730Z,1.20
2023-03-02T19:30:49.303Z,1.30
2023-03-02T19:33:16.563Z,1.30
2023-03-02T19:35:43.899Z,1.40
2023-03-02T19:38:10.993Z,1.50
2023-03-02T19:40:38.007Z,1.60
2023-03-02T19:43:05.364Z,1.60
2023-03-02T19:45:32.901Z,1.60
2023-03-02T19:47:59.885Z,1.50
2023-03-02T19:50:27.277Z,1.50
2023-03-02T19:52:54.984Z,1.50
2023-03-02T19:55:22.384Z,1.60
2023-03-02T19:57:51.621Z,1.60
2023-03-02T20:00:19.521Z,1.70
2023-03-02T20:02:47.350Z,1.60
2023-03-02T20:05:15.096Z,1.60
2023-03-02T20:07:42.487Z,1.60
2023-03-02T20:10:10.395Z,1.60
2023-03-02T20:12:37.452Z,1.60
2023-03-02T20:15:05.020Z,1.60
2023-03-02T20:17:32.138Z,1.60
2023-03-02T20:20:01.333Z,1.60
2023-03-02T20:22:28.394Z,1.60
2023-03-02T20:24:55.346Z,1.60
2023-03-02T20:27:22.437Z,1.60
2023-03-02T20:29:49.332Z,1.60
2023-03-02T20:32:16.449Z,1.60
2023-03-02T20:34:43.776Z,1.50
2023-03-02T20:37:13.600Z,1.50
2023-03-02T20:39:41.492Z,1.50
2023-03-02T20:42:08.821Z,1.50
2023-03-02T20:44:36.216Z,1.40
2023-03-02T20:47:08.277Z,1.50
2023-03-02T20:49:36.521Z,1.50
2023-03-02T20:52:04.879Z,1.50
2023-03-02T20:54:33.736Z,1.50
2023-03-02T20:57:00.748Z,1.50
2023-03-02T20:59:27.997Z,1.50
2023-03-02T21:01:54.927Z,1.60
2023-03-02T21:04:21.891Z,1.50
2023-03-02T21:06:48.874Z,1.50
2023-03-02T21:09:18.045Z,1.60
2023-03-02T21:11:45.701Z,1.50
2023-03-02T21:14:14.306Z,1.50
2023-03-02T21:16:42.854Z,1.50
2023-03-02T21:19:12.448Z,1.50
2023-03-02T21:21:42.174Z,1.40
2023-03-02T21:24:10.237Z,1.40
2023-03-02T21:26:37.226Z,1.40
2023-03-02T21:29:05.351Z,1.40
2023-03-02T21:31:32.383Z,1.40
2023-03-02T21:34:00.288Z,1.40
2023-03-02T21:36:28.134Z,1.40
2023-03-02T21:38:55.932Z,1.40
2023-03-02T21:41:23.270Z,1.40
2023-03-02T21:43:50.223Z,1.40
2023-03-02T21:46:19.335Z,1.40
2023-03-02T21:48:47.062Z,1.40
2023-03-02T21:51:14.293Z,1.40
2023-03-02T21:53:41.233Z,1.40
2023-03-02T21:56:08.846Z,1.30
2023-03-02T21:58:35.814Z,1.40
2023-03-02T22:01:02.889Z,1.40
2023-03-02T22:03:29.788Z,1.40
2023-03-02T22:05:56.798Z,1.40
2023-03-02T22:08:23.734Z,1.40
2023-03-02T22:10:51.405Z,1.40
2023-03-02T22:13:25.810Z,1.30
2023-03-02T22:15:58.646Z,1.30
2023-03-02T22:18:27.105Z,1.30
2023-03-02T22:20:54.018Z,1.30
2023-03-02T22:23:22.164Z,1.30
2023-03-02T22:25:51.177Z,1.30
2023-03-02T22:28:19.482Z,1.30
2023-03-02T22:30:46.826Z,1.40
2023-03-02T22:33:18.509Z,1.40
2023-03-02T22:35:45.876Z,1.30
2023-03-02T22:38:23.168Z,1.30
2023-03-02T22:40:52.738Z,1.30
2023-03-02T22:43:20.616Z,1.30
2023-03-02T22:45:47.685Z,1.20
2023-03-02T22:48:16.082Z,1.20
2023-03-02T22:50:44.276Z,1.30
2023-03-02T22:53:25.272Z,1.20
2023-03-02T22:56:00.265Z,1.20
2023-03-02T22:58:27.232Z,1.20
2023-03-02T23:00:54.264Z,1.20
2023-03-02T23:03:22.601Z,1.20
2023-03-02T23:05:51.850Z,1.20
2023-03-02T23:08:26.875Z,1.10
2023-03-02T23:10:55.036Z,1.20
2023-03-02T23:13:23.854Z,1.10
2023-03-02T23:15:51.972Z,1.10
2023-03-02T23:18:22.298Z,1.20
2023-03-02T23:20:49.531Z,1.20
2023-03-02T23:23:16.901Z,1.10
2023-03-02T23:25:44.246Z,1.20
2023-03-02T23:28:11.245Z,1.20
2023-03-02T23:30:38.632Z,1.10
2023-03-02T23:33:05.759Z,1.10
2023-03-02T23:35:32.822Z,1.10
2023-03-02T23:38:01.530Z,1.10
2023-03-02T23:40:28.963Z,1.00
2023-03-02T23:42:56.140Z,1.00
2023-03-02T23:45:23.136Z,1.10
2023-03-02T23:47:50.144Z,1.00
2023-03-02T23:50:17.146Z,1.10
2023-03-02T23:52:44.078Z,1.10
2023-03-02T23:55:11.455Z,1.00
2023-03-02T23:57:38.379Z,1.00
